createdAt,value
2022-12-09T00:01:09.862Z,9.80
2022-12-09T00:05:56.708Z,8.53
2022-12-09T00:10:45.057Z,9.10
2022-12-09T00:15:33.460Z,8.53
2022-12-09T00:20:18.603Z,7.80
2022-12-09T00:25:07.259Z,8.53
2022-12-09T00:29:54.417Z,8.63
2022-12-09T00:35:15.121Z,9.67
2022-12-09T00:40:02.697Z,10.13
2022-12-09T00:44:51.399Z,9.97
2022-12-09T00:49:39.594Z,11.50
2022-12-09T00:54:29.008Z,10.10
2022-12-09T00:59:15.842Z,9.73
2022-12-09T01:04:08.789Z,10.03
2022-12-09T01:08:53.527Z,8.70
2022-12-09T01:13:39.708Z,8.77
2022-12-09T01:18:30.732Z,10.53
2022-12-09T01:23:14.373Z,9.90
2022-12-09T01:28:21.338Z,11.07
2022-12-09T01:33:08.261Z,9.63
2022-12-09T01:38:45.691Z,9.70
2022-12-09T01:43:30.677Z,10.13
2022-12-09T01:48:49.365Z,9.27
2022-12-09T01:53:54.597Z,11.03
2022-12-09T01:58:45.501Z,9.43
2022-12-09T02:03:30.763Z,11.53
2022-12-09T02:08:24.240Z,10.03
2022-12-09T02:13:53.688Z,12.33
2022-12-09T02:18:57.166Z,11.00
2022-12-09T02:24:03.635Z,9.43
2022-12-09T02:29:39.622Z,11.23
2022-12-09T02:34:31.230Z,10.57
2022-12-09T02:39:33.001Z,13.50
2022-12-09T02:44:52.649Z,12.90
2022-12-09T02:50:01.433Z,9.10
2022-12-09T02:55:05.640Z,10.83
2022-12-09T03:05:41.418Z,12.00
2022-12-09T03:10:33.274Z,12.17
2022-12-09T03:15:19.268Z,10.80
2022-12-09T03:20:17.933Z,10.43
2022-12-09T03:25:21.984Z,11.53
2022-12-09T03:30:59.080Z,12.30
2022-12-09T03:35:45.795Z,10.77
2022-12-09T03:41:06.709Z,12.63
2022-12-09T03:46:15.219Z,10.70
2022-12-09T03:56:19.769Z,11.73
2022-12-09T04:01:12.073Z,11.37
2022-12-09T04:05:56.467Z,13.57
2022-12-09T04:10:43.729Z,11.63
2022-12-09T04:15:46.068Z,11.70
2022-12-09T04:21:09.789Z,12.03
2022-12-09T04:26:01.909Z,12.77
2022-12-09T04:31:29.232Z,11.40
2022-12-09T04:36:35.838Z,12.83
2022-12-09T04:41:24.053Z,13.57
2022-12-09T04:46:17.857Z,14.60
2022-12-09T04:51:18.888Z,12.27
2022-12-09T04:56:03.797Z,13.80
2022-12-09T05:00:52.157Z,11.80
2022-12-09T05:05:43.175Z,11.20
2022-12-09T05:10:27.339Z,11.20
2022-12-09T05:15:16.303Z,14.63
2022-12-09T05:20:04.379Z,15.30
2022-12-09T05:24:52.577Z,15.27
2022-12-09T05:29:40.112Z,14.20
2022-12-09T05:35:17.059Z,13.73
2022-12-09T05:39:47.036Z,16.17
2022-12-09T05:44:39.103Z,18.13
2022-12-09T05:49:23.123Z,18.00
2022-12-09T05:54:32.507Z,16.40
2022-12-09T05:59:16.448Z,17.07
2022-12-09T06:04:05.042Z,17.10
2022-12-09T06:08:55.811Z,16.07
2022-12-09T06:13:40.826Z,18.27
2022-12-09T06:18:26.849Z,16.97
2022-12-09T06:23:21.925Z,18.00
2022-12-09T06:28:17.915Z,18.20
2022-12-09T06:33:36.870Z,15.87
2022-12-09T06:38:58.341Z,17.67
2022-12-09T06:43:48.436Z,15.53
2022-12-09T11:25:28.190Z,15.70
2022-12-09T13:03:18.849Z,20.93
2022-12-09T13:15:26.891Z,19.93
2022-12-09T14:01:09.621Z,23.83
2022-12-09T14:12:04.866Z,20.33
2022-12-09T14:17:02.503Z,22.20
2022-12-09T14:22:34.934Z,18.73
2022-12-09T14:27:21.923Z,22.33
2022-12-09T14:32:27.482Z,18.90
2022-12-09T14:38:01.883Z,20.10
2022-12-09T14:43:02.901Z,22.63
2022-12-09T14:47:57.735Z,20.33
2022-12-09T14:53:24.671Z,28.83
2022-12-09T15:22:17.062Z,19.67
2022-12-09T15:55:26.870Z,20.97
